createdAt,value
2022-09-10T00:00:33.107Z,15.86
2022-09-10T00:01:33.200Z,15.89
2022-09-10T00:02:33.231Z,15.84
2022-09-10T00:03:33.105Z,15.80
2022-09-10T00:04:33.104Z,15.84
2022-09-10T00:05:33.106Z,15.83
2022-09-10T00:06:33.126Z,15.78
2022-09-10T00:07:33.124Z,15.78
2022-09-10T00:08:33.110Z,15.86
2022-09-10T00:09:33.105Z,15.80
2022-09-10T00:10:33.120Z,15.89
2022-09-10T00:11:33.108Z,15.84
2022-09-10T00:12:33.135Z,15.78
2022-09-10T00:13:33.125Z,15.75
2022-09-10T00:14:33.174Z,15.75
2022-09-10T00:15:33.156Z,15.72
2022-09-10T00:16:33.145Z,15.72
2022-09-10T00:17:34.052Z,15.64
2022-09-10T00:18:41.599Z,15.53
2022-09-10T00:19:41.623Z,15.54
2022-09-10T00:20:33.119Z,15.54
2022-09-10T00:21:33.136Z,15.54
2022-09-10T00:22:33.125Z,15.51
2022-09-10T00:23:33.154Z,15.62
2022-09-10T00:24:33.148Z,15.51
2022-09-10T00:25:33.148Z,15.44
2022-09-10T00:26:33.150Z,15.49
2022-09-10T00:27:33.153Z,15.56
2022-09-10T00:28:33.203Z,15.44
2022-09-10T00:29:33.145Z,15.54
2022-09-10T00:30:33.143Z,15.47
2022-09-10T00:31:33.179Z,15.56
2022-09-10T00:32:33.134Z,15.53
2022-09-10T00:33:33.143Z,15.59
2022-09-10T00:34:33.148Z,15.53
2022-09-10T00:35:33.146Z,15.53
2022-09-10T00:36:33.158Z,15.53
2022-09-10T00:37:33.141Z,15.56
2022-09-10T00:38:33.138Z,15.51
2022-09-10T00:39:33.225Z,15.50
2022-09-10T00:40:33.191Z,15.51
2022-09-10T00:41:33.156Z,15.46
2022-09-10T00:42:33.157Z,15.47
2022-09-10T00:43:33.171Z,15.53
2022-09-10T00:44:35.656Z,15.53
2022-09-10T00:45:33.223Z,15.43
2022-09-10T00:46:33.165Z,15.41
2022-09-10T00:47:33.150Z,15.43
2022-09-10T00:48:33.171Z,15.46
2022-09-10T00:49:33.166Z,15.44
2022-09-10T00:50:33.158Z,15.53
2022-09-10T00:51:33.165Z,15.36
2022-09-10T00:52:37.562Z,15.50
2022-09-10T00:53:33.162Z,15.44
2022-09-10T00:54:33.172Z,15.50
2022-09-10T00:55:33.162Z,15.41
2022-09-10T00:56:33.196Z,15.49
2022-09-10T00:57:33.175Z,15.39
2022-09-10T00:58:33.173Z,15.39
2022-09-10T00:59:33.176Z,15.53
2022-09-10T01:00:33.250Z,15.51
2022-09-10T01:01:33.194Z,15.50
2022-09-10T01:02:33.199Z,15.51
2022-09-10T01:03:33.202Z,15.43
2022-09-10T01:04:33.170Z,15.41
2022-09-10T01:05:33.185Z,15.41
2022-09-10T01:06:33.215Z,15.51
2022-09-10T01:07:34.138Z,15.53
2022-09-10T01:08:33.194Z,15.47
2022-09-10T01:09:33.179Z,15.49
2022-09-10T01:10:33.183Z,15.50
2022-09-10T01:11:34.779Z,15.49
2022-09-10T01:12:35.866Z,15.50
2022-09-10T01:13:33.215Z,15.53
2022-09-10T01:14:33.178Z,15.51
2022-09-10T01:15:33.197Z,15.46
2022-09-10T01:16:33.247Z,15.44
2022-09-10T01:17:33.222Z,15.36
2022-09-10T01:18:33.190Z,15.46
2022-09-10T01:19:33.211Z,15.39
2022-09-10T01:20:33.199Z,15.39
2022-09-10T01:21:33.191Z,15.39
2022-09-10T01:22:33.187Z,15.39
2022-09-10T01:23:33.250Z,15.34
2022-09-10T01:24:33.199Z,15.36
2022-09-10T01:25:33.213Z,15.41
2022-09-10T01:26:33.263Z,15.32
2022-09-10T01:27:33.209Z,15.36
2022-09-10T01:28:33.209Z,15.36
2022-09-10T01:29:33.240Z,15.31
2022-09-10T01:30:33.238Z,15.36
2022-09-10T01:31:33.262Z,15.34
2022-09-10T01:32:33.208Z,15.36
2022-09-10T01:33:33.216Z,15.34
2022-09-10T01:34:33.225Z,15.41
2022-09-10T01:35:33.209Z,15.36
2022-09-10T01:36:33.213Z,15.35
2022-09-10T01:37:33.215Z,15.41
2022-09-10T01:38:33.212Z,15.29
2022-09-10T01:39:33.256Z,15.29
2022-09-10T01:40:33.218Z,15.27
2022-09-10T01:41:33.217Z,15.25
2022-09-10T01:42:33.227Z,15.14
2022-09-10T01:43:33.230Z,15.28
2022-09-10T01:44:33.244Z,15.25
2022-09-10T01:45:33.227Z,15.25
2022-09-10T01:46:33.223Z,15.14
2022-09-10T01:47:33.216Z,15.32
2022-09-10T01:48:33.566Z,15.29
2022-09-10T01:49:33.229Z,15.28
2022-09-10T01:50:33.222Z,15.35
2022-09-10T01:51:33.214Z,15.41
2022-09-10T01:52:33.230Z,15.31
2022-09-10T01:53:33.224Z,15.36
2022-09-10T01:54:33.233Z,15.36
2022-09-10T01:55:33.221Z,15.44
2022-09-10T01:56:33.223Z,15.39
2022-09-10T01:57:33.233Z,15.38
2022-09-10T01:58:33.228Z,15.41
2022-09-10T01:59:33.238Z,15.44
2022-09-10T02:00:33.247Z,15.49
2022-09-10T02:01:33.252Z,15.51
2022-09-10T02:02:33.251Z,15.56
2022-09-10T02:03:33.259Z,15.56
2022-09-10T02:04:33.230Z,15.51
2022-09-10T02:05:33.246Z,15.51
2022-09-10T02:06:33.238Z,15.54
2022-09-10T02:07:33.244Z,15.59
2022-09-10T02:08:33.240Z,15.56
2022-09-10T02:09:33.260Z,15.60
2022-09-10T02:10:33.242Z,15.51
2022-09-10T02:11:33.239Z,15.50
2022-09-10T02:12:33.242Z,15.43
2022-09-10T02:13:33.295Z,15.47
2022-09-10T02:14:33.269Z,15.53
2022-09-10T02:15:33.244Z,15.41
2022-09-10T02:16:33.283Z,15.57
2022-09-10T02:17:33.261Z,15.54
2022-09-10T02:18:33.258Z,15.51
2022-09-10T02:19:33.272Z,15.50
2022-09-10T02:20:33.261Z,15.47
2022-09-10T02:21:33.254Z,15.54
2022-09-10T02:22:33.259Z,15.57
2022-09-10T02:23:33.259Z,15.56
2022-09-10T02:24:33.270Z,15.60
2022-09-10T02:25:33.282Z,15.53
2022-09-10T02:26:33.268Z,15.49
2022-09-10T02:27:33.250Z,15.56
2022-09-10T02:28:33.260Z,15.65
2022-09-10T02:29:33.259Z,15.65
2022-09-10T02:30:33.286Z,15.62
2022-09-10T02:31:33.301Z,15.62
2022-09-10T02:32:33.256Z,15.60
2022-09-10T02:33:34.187Z,15.53
2022-09-10T02:34:33.272Z,15.53
2022-09-10T02:35:33.280Z,15.56
2022-09-10T02:36:33.286Z,15.49
2022-09-10T02:37:33.258Z,15.43
2022-09-10T02:38:33.275Z,15.32
2022-09-10T02:39:33.331Z,15.36
2022-09-10T02:40:33.277Z,15.34
2022-09-10T02:41:33.292Z,15.32
2022-09-10T02:42:33.296Z,15.25
2022-09-10T02:43:33.279Z,15.25
2022-09-10T02:44:33.271Z,15.34
2022-09-10T02:45:33.289Z,15.28
2022-09-10T02:46:33.287Z,15.16
2022-09-10T02:47:33.294Z,15.16
2022-09-10T02:48:33.300Z,15.17
2022-09-10T02:49:33.303Z,15.17
2022-09-10T02:50:33.281Z,15.21
2022-09-10T02:51:33.289Z,15.11
2022-09-10T02:52:33.301Z,15.16
2022-09-10T02:53:33.293Z,15.17
2022-09-10T02:54:33.276Z,15.17
2022-09-10T02:55:33.304Z,15.16
2022-09-10T02:56:33.284Z,15.16
2022-09-10T02:57:33.304Z,15.28
2022-09-10T02:58:33.296Z,15.20
2022-09-10T02:59:33.285Z,15.21
2022-09-10T03:00:33.314Z,15.27
2022-09-10T03:01:33.291Z,15.21
2022-09-10T03:02:33.305Z,15.25
2022-09-10T03:03:33.297Z,15.23
2022-09-10T03:04:33.315Z,15.16
2022-09-10T03:05:33.387Z,15.11
2022-09-10T03:06:33.302Z,15.14
2022-09-10T03:07:33.302Z,15.06
2022-09-10T03:08:33.297Z,14.98
2022-09-10T03:09:33.341Z,14.94
2022-09-10T03:10:33.318Z,14.91
2022-09-10T03:11:33.309Z,14.80
2022-09-10T03:12:33.298Z,14.83
2022-09-10T03:13:33.368Z,14.73
2022-09-10T03:14:33.313Z,14.69
2022-09-10T03:15:33.327Z,14.75
2022-09-10T03:16:33.360Z,14.75
2022-09-10T03:17:42.126Z,14.73
2022-09-10T03:18:33.362Z,14.69
2022-09-10T03:19:33.330Z,14.69
2022-09-10T03:20:33.319Z,14.69
2022-09-10T03:21:33.378Z,14.78
2022-09-10T03:22:33.328Z,14.77
2022-09-10T03:23:33.345Z,14.68
2022-09-10T03:24:33.379Z,14.64
2022-09-10T03:25:33.332Z,14.72
2022-09-10T03:26:33.317Z,14.73
2022-09-10T03:27:33.355Z,14.68
2022-09-10T03:28:33.327Z,14.75
2022-09-10T03:29:33.351Z,14.75
2022-09-10T03:30:33.321Z,14.81
2022-09-10T03:31:33.339Z,14.89
2022-09-10T03:32:33.328Z,14.88
2022-09-10T03:33:33.330Z,14.95
2022-09-10T03:34:33.326Z,14.95
2022-09-10T03:35:33.319Z,14.98
2022-09-10T03:36:33.331Z,14.98
2022-09-10T03:37:33.341Z,14.96
2022-09-10T03:38:33.335Z,14.91
2022-09-10T03:39:33.344Z,14.96
2022-09-10T03:40:33.328Z,14.99
2022-09-10T03:41:33.331Z,15.02
2022-09-10T03:42:33.355Z,14.95
2022-09-10T03:43:33.331Z,14.91
2022-09-10T03:44:33.349Z,15.01
2022-09-10T03:45:33.410Z,14.94
2022-09-10T03:46:33.360Z,14.84
2022-09-10T03:47:33.336Z,14.92
2022-09-10T03:48:33.341Z,14.95
2022-09-10T03:49:33.361Z,14.86
2022-09-10T03:50:33.341Z,15.01
2022-09-10T03:51:33.330Z,14.95
2022-09-10T03:52:33.359Z,14.99
2022-09-10T03:53:33.336Z,14.96
2022-09-10T03:54:33.357Z,14.98
2022-09-10T03:55:33.357Z,15.03
2022-09-10T03:56:33.368Z,15.06
2022-09-10T03:57:33.342Z,15.02
2022-09-10T03:58:33.336Z,15.06
2022-09-10T03:59:33.343Z,15.13
2022-09-10T04:00:33.357Z,15.11
2022-09-10T04:01:33.352Z,15.10
2022-09-10T04:02:33.367Z,15.13
2022-09-10T04:03:33.337Z,15.17
2022-09-10T04:04:33.349Z,15.17
2022-09-10T04:05:33.348Z,15.14
2022-09-10T04:06:33.364Z,15.16
2022-09-10T04:07:33.359Z,15.17
2022-09-10T04:08:33.397Z,15.13
2022-09-10T04:09:33.362Z,15.20
2022-09-10T04:10:33.355Z,15.19
2022-09-10T04:11:33.359Z,15.19
2022-09-10T04:12:33.349Z,15.14
2022-09-10T04:13:33.382Z,15.11
2022-09-10T04:14:33.358Z,15.14
2022-09-10T04:15:33.369Z,15.14
2022-09-10T04:16:33.360Z,15.16
2022-09-10T04:17:33.371Z,15.11
2022-09-10T04:18:33.363Z,15.10
2022-09-10T04:19:33.370Z,14.98
2022-09-10T04:20:33.363Z,15.03
2022-09-10T04:21:33.363Z,15.14
2022-09-10T04:22:33.374Z,14.98
2022-09-10T04:23:33.372Z,15.03
2022-09-10T04:24:38.165Z,15.06
2022-09-10T04:25:33.371Z,14.95
2022-09-10T04:26:33.386Z,15.07
2022-09-10T04:27:33.370Z,15.01
2022-09-10T04:28:33.377Z,15.01
2022-09-10T04:29:33.413Z,15.02
2022-09-10T04:30:33.363Z,14.86
2022-09-10T04:31:33.406Z,14.77
2022-09-10T04:32:33.396Z,14.62
2022-09-10T04:33:33.377Z,14.62
2022-09-10T04:34:33.374Z,14.52
2022-09-10T04:35:33.388Z,14.45
2022-09-10T04:36:33.377Z,14.33
2022-09-10T04:37:33.378Z,14.45
2022-09-10T04:38:33.392Z,14.42
2022-09-10T04:39:33.413Z,14.35
2022-09-10T04:40:33.385Z,14.47
2022-09-10T04:41:33.384Z,14.40
2022-09-10T04:42:33.380Z,14.37
2022-09-10T04:43:33.393Z,14.55
2022-09-10T04:44:33.379Z,14.52
2022-09-10T04:45:33.466Z,14.47
2022-09-10T04:46:33.417Z,14.45
2022-09-10T04:47:33.384Z,14.45
2022-09-10T04:48:33.387Z,14.45
2022-09-10T04:49:33.399Z,14.35
2022-09-10T04:50:33.387Z,14.50
2022-09-10T04:51:33.378Z,14.29
2022-09-10T04:52:33.414Z,14.50
2022-09-10T04:53:33.391Z,14.40
2022-09-10T04:54:33.379Z,14.42
2022-09-10T04:55:33.395Z,14.47
2022-09-10T04:56:33.400Z,14.43
2022-09-10T04:57:33.671Z,14.40
2022-09-10T04:58:38.465Z,14.28
2022-09-10T04:59:33.406Z,14.32
2022-09-10T05:00:33.406Z,14.28
2022-09-10T05:01:33.408Z,14.25
2022-09-10T05:02:33.399Z,14.32
2022-09-10T05:03:33.392Z,14.28
2022-09-10T05:04:33.407Z,14.28
2022-09-10T05:05:33.386Z,14.28
2022-09-10T05:06:33.401Z,14.35
2022-09-10T05:07:33.388Z,14.33
2022-09-10T05:08:33.407Z,14.42
2022-09-10T05:09:33.406Z,14.43
2022-09-10T05:10:33.403Z,14.52
2022-09-10T05:11:33.400Z,14.50
2022-09-10T05:12:33.406Z,14.57
2022-09-10T05:13:33.403Z,14.60
2022-09-10T05:14:33.407Z,14.61
2022-09-10T05:15:33.416Z,14.55
2022-09-10T05:16:33.534Z,14.65
2022-09-10T05:17:33.410Z,14.64
2022-09-10T05:18:33.406Z,14.70
2022-09-10T05:19:33.413Z,14.64
2022-09-10T05:20:33.428Z,14.65
2022-09-10T05:21:33.429Z,14.83
2022-09-10T05:22:38.497Z,14.75
2022-09-10T05:23:33.400Z,14.77
2022-09-10T05:24:33.395Z,14.68
2022-09-10T05:25:33.427Z,14.72
2022-09-10T05:26:33.487Z,14.70
2022-09-10T05:27:33.421Z,14.69
2022-09-10T05:28:33.411Z,14.61
2022-09-10T05:29:33.418Z,14.58
2022-09-10T05:30:33.427Z,14.58
2022-09-10T05:31:33.458Z,14.54
2022-09-10T05:32:33.409Z,14.42
2022-09-10T05:33:33.423Z,14.46
2022-09-10T05:34:33.419Z,14.61
2022-09-10T05:35:33.428Z,14.57
2022-09-10T05:36:33.407Z,14.61
2022-09-10T05:37:33.421Z,14.62
2022-09-10T05:38:36.071Z,14.57
2022-09-10T05:39:33.495Z,14.64
2022-09-10T05:40:33.421Z,14.58
2022-09-10T05:41:33.416Z,14.64
2022-09-10T05:42:33.447Z,14.62
2022-09-10T05:43:33.406Z,14.64
2022-09-10T05:44:33.408Z,14.69
2022-09-10T05:45:33.471Z,14.68
2022-09-10T05:49:58.732Z,14.77
2022-09-10T05:50:39.596Z,14.86
2022-09-10T05:51:39.618Z,14.86
2022-09-10T05:52:39.612Z,14.95
2022-09-10T05:53:39.619Z,14.99
2022-09-10T05:54:39.597Z,14.96
2022-09-10T05:55:39.623Z,14.98
2022-09-10T05:56:39.609Z,14.99
2022-09-10T05:57:39.607Z,15.07
2022-09-10T05:58:39.687Z,15.19
2022-09-10T05:59:39.612Z,15.17
2022-09-10T06:00:39.600Z,15.23
2022-09-10T06:01:39.602Z,15.38
2022-09-10T06:02:39.714Z,15.44
2022-09-10T06:03:39.603Z,15.54
2022-09-10T06:04:39.615Z,15.57
2022-09-10T06:05:39.626Z,15.69
2022-09-10T06:06:39.664Z,15.72
2022-09-10T06:07:39.632Z,15.92
2022-09-10T06:08:39.763Z,15.86
2022-09-10T06:09:39.623Z,15.96
2022-09-10T06:10:39.621Z,16.05
2022-09-10T06:11:39.614Z,16.08
2022-09-10T06:12:40.228Z,16.20
2022-09-10T06:13:39.631Z,16.23
2022-09-10T06:14:39.629Z,16.30
2022-09-10T06:15:39.613Z,16.35
2022-09-10T06:16:39.636Z,16.49
2022-09-10T06:17:39.663Z,16.57
2022-09-10T06:18:39.715Z,16.66
2022-09-10T06:19:39.642Z,16.75
2022-09-10T06:20:39.626Z,16.79
2022-09-10T06:21:39.622Z,16.89
2022-09-10T06:22:39.640Z,17.04
2022-09-10T06:23:39.645Z,17.01
2022-09-10T06:24:39.620Z,17.15
2022-09-10T06:25:39.629Z,17.22
2022-09-10T06:26:39.631Z,17.25
2022-09-10T06:27:39.636Z,17.28
2022-09-10T06:28:39.737Z,17.34
2022-09-10T06:29:39.671Z,17.48
2022-09-10T06:30:39.684Z,17.55
2022-09-10T06:31:39.652Z,17.71
2022-09-10T06:32:39.753Z,17.71
2022-09-10T06:33:39.647Z,17.92
2022-09-10T06:34:39.651Z,18.00
2022-09-10T06:35:39.644Z,18.23
2022-09-10T06:36:39.645Z,18.37
2022-09-10T06:37:39.661Z,18.50
2022-09-10T06:38:39.877Z,18.70
2022-09-10T06:39:39.699Z,18.87
2022-09-10T06:40:39.667Z,19.07
2022-09-10T06:41:39.683Z,19.37
2022-09-10T06:42:39.698Z,19.61
2022-09-10T06:43:39.678Z,19.87
2022-09-10T06:44:39.694Z,20.21
2022-09-10T06:45:39.717Z,20.39
2022-09-10T06:48:19.162Z,20.95
2022-09-10T06:48:42.320Z,21.14
2022-09-10T06:49:39.696Z,21.43
2022-09-10T06:50:39.696Z,21.65
2022-09-10T06:51:39.713Z,21.94
2022-09-10T06:52:39.690Z,22.24
2022-09-10T06:53:39.704Z,22.62
2022-09-10T06:54:39.722Z,22.91
2022-09-10T06:55:39.704Z,23.28
2022-09-10T06:56:39.688Z,23.46
2022-09-10T06:57:39.720Z,23.60
2022-09-10T06:58:39.914Z,23.69
2022-09-10T06:59:39.750Z,23.87
2022-09-10T07:00:39.739Z,24.02
2022-09-10T07:01:39.756Z,24.24
2022-09-10T07:02:39.732Z,24.34
2022-09-10T07:03:39.716Z,24.39
2022-09-10T07:04:39.732Z,24.47
2022-09-10T07:05:39.727Z,24.57
2022-09-10T07:06:39.784Z,24.69
2022-09-10T07:07:39.743Z,24.84
2022-09-10T07:08:40.768Z,24.95
2022-09-10T07:09:39.776Z,25.09
2022-09-10T07:10:39.769Z,25.15
2022-09-10T07:11:41.774Z,25.23
2022-09-10T07:12:39.782Z,25.28
2022-09-10T07:13:39.786Z,25.21
2022-09-10T07:14:39.763Z,25.24
2022-09-10T07:15:39.798Z,25.13
2022-09-10T07:16:39.782Z,24.84
2022-09-10T07:17:39.810Z,24.73
2022-09-10T07:18:39.943Z,24.37
2022-09-10T07:19:39.784Z,24.35
2022-09-10T07:20:39.799Z,24.53
2022-09-10T07:21:39.813Z,24.68
2022-09-10T07:22:39.810Z,24.99
2022-09-10T07:23:39.820Z,25.38
2022-09-10T07:24:39.816Z,25.65
2022-09-10T07:25:39.813Z,25.90
2022-09-10T07:26:39.843Z,26.06
2022-09-10T07:27:39.834Z,26.23
2022-09-10T07:28:39.892Z,26.50
2022-09-10T07:29:39.857Z,26.45
2022-09-10T07:30:39.916Z,26.57
2022-09-10T07:31:39.856Z,26.60
2022-09-10T07:32:39.863Z,26.75
2022-09-10T07:33:39.856Z,26.75
2022-09-10T07:34:39.866Z,27.03
2022-09-10T07:35:39.867Z,27.19
2022-09-10T07:36:39.905Z,27.34
2022-09-10T07:37:39.892Z,27.47
2022-09-10T07:38:40.003Z,27.63
2022-09-10T07:39:39.979Z,27.77
2022-09-10T07:40:39.910Z,27.82
2022-09-10T07:41:39.930Z,27.96
2022-09-10T07:42:39.903Z,27.99
2022-09-10T07:43:39.937Z,28.00
2022-09-10T07:44:39.946Z,28.14
2022-09-10T07:45:39.929Z,28.18
2022-09-10T07:46:39.924Z,28.09
2022-09-10T07:47:39.965Z,27.94
2022-09-10T07:48:40.043Z,27.97
2022-09-10T07:49:39.975Z,27.90
2022-09-10T07:50:39.981Z,27.84
2022-09-10T07:51:39.965Z,27.82
2022-09-10T07:52:40.047Z,27.78
2022-09-10T07:53:47.523Z,27.79
2022-09-10T07:54:39.993Z,27.79
2022-09-10T07:55:42.214Z,27.81
2022-09-10T07:56:40.001Z,27.47
2022-09-10T07:57:40.009Z,27.28
2022-09-10T07:58:40.134Z,27.04
2022-09-10T07:59:40.032Z,27.02
2022-09-10T08:00:40.034Z,26.94
2022-09-10T08:01:40.084Z,27.00
2022-09-10T08:02:40.040Z,27.06
2022-09-10T08:03:40.047Z,27.07
2022-09-10T08:04:40.048Z,27.07
2022-09-10T08:05:40.086Z,26.92
2022-09-10T08:06:40.096Z,26.92
2022-09-10T08:07:40.075Z,26.85
2022-09-10T08:08:40.157Z,26.88
2022-09-10T08:09:40.081Z,26.75
2022-09-10T08:10:40.092Z,26.77
2022-09-10T08:11:40.083Z,26.76
2022-09-10T08:12:40.138Z,26.76
2022-09-10T08:13:40.103Z,26.70
2022-09-10T08:14:40.136Z,26.63
2022-09-10T08:15:40.145Z,26.55
2022-09-10T08:16:43.826Z,26.57
2022-09-10T08:17:40.142Z,26.45
2022-09-10T08:18:40.274Z,26.36
2022-09-10T08:19:40.174Z,26.29
2022-09-10T08:20:40.156Z,26.25
2022-09-10T08:21:40.151Z,26.21
2022-09-10T08:22:40.160Z,26.10
2022-09-10T08:23:40.198Z,26.18
2022-09-10T08:24:40.172Z,26.15
2022-09-10T08:25:40.174Z,26.09
2022-09-10T08:26:40.239Z,26.12
2022-09-10T08:27:40.194Z,26.07
2022-09-10T08:28:40.366Z,25.97
2022-09-10T08:29:40.235Z,25.94
2022-09-10T08:30:40.352Z,25.98
2022-09-10T08:31:40.230Z,25.92
2022-09-10T08:32:40.240Z,25.88
2022-09-10T08:33:40.238Z,25.85
2022-09-10T08:34:40.287Z,25.90
2022-09-10T08:35:40.279Z,25.91
2022-09-10T08:36:40.264Z,25.95
2022-09-10T08:37:40.319Z,26.02
2022-09-10T08:38:40.418Z,26.09
2022-09-10T08:39:40.304Z,25.95
2022-09-10T08:40:40.318Z,25.82
2022-09-10T08:41:40.292Z,25.77
2022-09-10T08:42:40.301Z,25.75
2022-09-10T08:43:40.295Z,25.72
2022-09-10T08:44:40.319Z,25.61
2022-09-10T08:45:40.354Z,25.69
2022-09-10T08:46:40.343Z,25.72
2022-09-10T08:47:40.353Z,25.80
2022-09-10T08:48:40.431Z,25.75
2022-09-10T08:49:40.333Z,25.82
2022-09-10T08:50:48.094Z,25.79
2022-09-10T08:51:40.363Z,25.46
2022-09-10T08:52:48.861Z,25.58
2022-09-10T08:53:48.005Z,25.52
2022-09-10T08:54:48.593Z,25.36
2022-09-10T08:55:49.187Z,25.25
2022-09-10T08:56:49.184Z,25.23
2022-09-10T08:57:40.402Z,25.20
2022-09-10T08:58:41.476Z,25.14
2022-09-10T09:03:19.834Z,25.23
2022-09-10T09:04:19.023Z,25.23
2022-09-10T09:05:10.823Z,25.17
2022-09-10T09:06:10.843Z,25.06
2022-09-10T09:07:10.843Z,24.98
2022-09-10T09:08:10.973Z,24.95
2022-09-10T09:09:15.258Z,24.98
2022-09-10T09:10:10.874Z,24.98
2022-09-10T09:11:10.864Z,24.85
2022-09-10T09:12:10.876Z,24.76
2022-09-10T09:13:10.877Z,24.84
2022-09-10T09:14:10.873Z,24.71
2022-09-10T09:15:10.894Z,24.71
2022-09-10T09:16:10.918Z,24.65
2022-09-10T09:17:10.914Z,24.62
2022-09-10T09:18:17.992Z,24.76
2022-09-10T09:19:10.921Z,24.78
2022-09-10T09:20:10.907Z,24.85
2022-09-10T09:21:10.909Z,24.95
2022-09-10T09:22:10.914Z,25.09
2022-09-10T09:23:10.947Z,25.13
2022-09-10T09:24:13.608Z,25.17
2022-09-10T09:25:10.931Z,25.10
2022-09-10T09:26:10.939Z,25.20
2022-09-10T09:27:10.967Z,25.23
2022-09-10T09:28:10.958Z,25.24
2022-09-10T09:29:10.968Z,25.18
2022-09-10T09:30:10.981Z,25.13
2022-09-10T09:31:11.010Z,25.15
2022-09-10T09:32:10.978Z,25.15
2022-09-10T09:33:10.974Z,25.24
2022-09-10T09:34:11.010Z,25.33
2022-09-10T09:35:11.013Z,25.35
2022-09-10T09:36:10.998Z,25.38
2022-09-10T09:37:11.016Z,25.52
2022-09-10T09:38:11.012Z,25.35
2022-09-10T09:39:11.026Z,25.50
2022-09-10T09:40:11.091Z,25.62
2022-09-10T09:41:11.059Z,25.67
2022-09-10T09:42:11.071Z,25.82
2022-09-10T09:43:11.045Z,25.88
2022-09-10T09:44:11.065Z,25.88
2022-09-10T09:45:11.074Z,25.90
2022-09-10T09:46:11.192Z,25.95
2022-09-10T09:47:11.070Z,25.94
2022-09-10T09:48:11.101Z,25.95
2022-09-10T09:49:11.089Z,26.10
2022-09-10T09:50:11.197Z,26.25
2022-09-10T09:51:11.140Z,26.36
2022-09-10T09:52:11.137Z,26.44
2022-09-10T09:53:11.140Z,26.54
2022-09-10T09:54:46.624Z,26.54
2022-09-10T09:55:14.839Z,26.76
2022-09-10T09:56:11.155Z,26.88
2022-09-10T09:57:11.190Z,26.89
2022-09-10T09:58:11.178Z,27.02
2022-09-10T09:59:14.909Z,27.21
2022-09-10T10:00:11.188Z,27.24
2022-09-10T10:01:11.224Z,27.28
2022-09-10T10:02:11.249Z,27.19
2022-09-10T10:03:11.245Z,27.41
2022-09-10T10:04:11.241Z,27.54
2022-09-10T10:05:11.233Z,27.65
2022-09-10T10:06:11.262Z,27.69
2022-09-10T10:07:11.261Z,27.69
2022-09-10T10:08:11.279Z,27.94
2022-09-10T10:09:11.291Z,28.19
2022-09-10T10:10:11.305Z,28.48
2022-09-10T10:11:11.312Z,28.74
2022-09-10T10:12:11.310Z,29.00
2022-09-10T10:13:11.356Z,29.27
2022-09-10T10:14:11.363Z,29.49
2022-09-10T10:15:11.365Z,29.70
2022-09-10T10:16:11.393Z,29.78
2022-09-10T10:17:11.376Z,29.52
2022-09-10T10:18:11.395Z,29.00
2022-09-10T10:19:11.412Z,28.64
2022-09-10T10:20:11.437Z,28.30
2022-09-10T10:21:11.468Z,28.07
2022-09-10T10:22:11.434Z,28.44
2022-09-10T10:23:12.010Z,28.85
2022-09-10T10:24:11.474Z,29.24
2022-09-10T10:25:11.503Z,29.27
2022-09-10T10:26:11.507Z,29.58
2022-09-10T10:27:11.509Z,29.94
2022-09-10T10:28:11.530Z,29.86
2022-09-10T10:29:11.525Z,29.85
2022-09-10T10:30:11.547Z,29.76
2022-09-10T10:31:11.600Z,29.52
2022-09-10T10:32:11.563Z,29.87
2022-09-10T10:33:11.608Z,29.89
2022-09-10T10:34:11.592Z,29.89
2022-09-10T10:35:11.606Z,30.05
2022-09-10T10:36:11.621Z,30.20
2022-09-10T10:37:11.646Z,30.10
2022-09-10T10:38:11.676Z,30.47
2022-09-10T10:39:11.671Z,30.79
2022-09-10T10:40:11.694Z,31.01
2022-09-10T10:41:11.693Z,31.29
2022-09-10T10:42:11.715Z,31.53
2022-09-10T10:43:11.745Z,31.58
2022-09-10T10:44:11.753Z,31.73
2022-09-10T10:45:11.772Z,31.65
2022-09-10T10:46:12.146Z,31.80
2022-09-10T10:47:11.807Z,31.76
2022-09-10T10:48:11.814Z,32.15
2022-09-10T10:49:11.848Z,32.30
2022-09-10T10:50:11.863Z,32.23
2022-09-10T10:51:11.867Z,32.50
2022-09-10T10:52:11.871Z,32.63
2022-09-10T10:53:11.905Z,32.79
2022-09-10T10:54:11.932Z,32.67
2022-09-10T10:55:11.960Z,32.51
2022-09-10T10:56:11.945Z,32.22
2022-09-10T10:57:11.964Z,32.38
2022-09-10T10:58:11.997Z,32.45
2022-09-10T10:59:12.005Z,32.45
2022-09-10T11:00:12.037Z,32.70
2022-09-10T11:01:12.092Z,32.69
2022-09-10T11:02:12.127Z,32.94
2022-09-10T11:03:12.115Z,32.85
2022-09-10T11:04:12.089Z,33.07
2022-09-10T11:05:12.124Z,33.23
2022-09-10T11:06:12.118Z,33.34
2022-09-10T11:07:12.156Z,33.44
2022-09-10T11:08:12.151Z,33.50
2022-09-10T11:09:12.199Z,33.53
2022-09-10T11:10:12.212Z,32.88
2022-09-10T11:11:12.217Z,33.18
2022-09-10T11:12:12.247Z,33.44
2022-09-10T11:13:12.254Z,33.59
2022-09-10T11:14:12.296Z,32.69
2022-09-10T11:15:12.288Z,32.06
2022-09-10T11:16:12.310Z,31.89
2022-09-10T11:17:12.328Z,31.75
2022-09-10T11:18:12.367Z,31.13
2022-09-10T11:19:12.371Z,30.22
2022-09-10T11:20:29.325Z,29.57
2022-09-10T11:21:12.393Z,29.23
2022-09-10T11:22:12.406Z,28.73
2022-09-10T11:23:12.436Z,29.09
2022-09-10T11:24:16.801Z,29.71
2022-09-10T11:25:12.444Z,30.31
2022-09-10T11:26:12.476Z,30.69
2022-09-10T11:27:12.486Z,31.07
2022-09-10T11:28:12.499Z,31.10
2022-09-10T11:29:12.539Z,30.46
2022-09-10T11:30:12.543Z,29.90
2022-09-10T11:31:12.581Z,29.70
2022-09-10T11:32:13.078Z,29.34
2022-09-10T11:33:12.563Z,28.95
2022-09-10T11:34:12.573Z,28.61
2022-09-10T11:35:12.609Z,28.41
2022-09-10T11:36:12.616Z,27.93
2022-09-10T11:37:12.640Z,27.70
2022-09-10T11:38:12.622Z,27.43
2022-09-10T11:39:12.653Z,27.24
2022-09-10T11:40:12.727Z,27.19
2022-09-10T11:41:12.723Z,27.02
2022-09-10T11:42:12.683Z,26.91
2022-09-10T11:43:12.691Z,26.81
2022-09-10T11:44:12.694Z,26.75
2022-09-10T11:45:12.721Z,26.54
2022-09-10T11:46:12.800Z,26.50
2022-09-10T11:47:12.757Z,26.45
2022-09-10T11:48:12.750Z,26.36
2022-09-10T11:49:12.756Z,26.21
2022-09-10T11:50:12.800Z,26.23
2022-09-10T11:51:12.789Z,26.06
2022-09-10T11:52:12.819Z,26.50
2022-09-10T11:53:12.800Z,26.89
2022-09-10T11:54:12.801Z,27.27
2022-09-10T11:55:12.813Z,27.51
2022-09-10T11:56:12.827Z,27.65
2022-09-10T11:57:12.865Z,27.96
2022-09-10T11:58:12.861Z,28.58
2022-09-10T11:59:12.876Z,29.00
2022-09-10T12:00:12.865Z,29.41
2022-09-10T12:01:12.876Z,29.58
2022-09-10T12:02:12.935Z,29.73
2022-09-10T12:03:12.968Z,29.90
2022-09-10T12:04:12.911Z,29.89
2022-09-10T12:05:12.910Z,29.37
2022-09-10T12:06:12.921Z,29.12
2022-09-10T12:07:12.970Z,28.83
2022-09-10T12:08:12.975Z,28.78
2022-09-10T12:09:12.944Z,28.68
2022-09-10T12:10:14.505Z,28.66
2022-09-10T12:11:12.970Z,28.30
2022-09-10T12:12:13.013Z,28.31
2022-09-10T12:13:12.981Z,28.31
2022-09-10T12:14:13.013Z,28.24
2022-09-10T12:15:13.025Z,28.12
2022-09-10T12:16:13.101Z,28.14
2022-09-10T12:17:13.038Z,28.27
2022-09-10T12:18:13.034Z,28.36
2022-09-10T12:19:13.042Z,28.40
2022-09-10T12:20:13.036Z,28.44
2022-09-10T12:21:13.064Z,28.34
2022-09-10T12:22:14.030Z,28.37
2022-09-10T12:23:13.068Z,28.34
2022-09-10T12:24:13.081Z,28.36
2022-09-10T12:25:13.097Z,28.21
2022-09-10T12:26:13.103Z,28.14
2022-09-10T12:27:13.111Z,28.22
2022-09-10T12:28:13.142Z,28.29
2022-09-10T12:29:13.113Z,28.22
2022-09-10T12:30:13.164Z,28.27
2022-09-10T12:31:13.191Z,28.34
2022-09-10T12:32:13.181Z,28.31
2022-09-10T12:33:13.158Z,28.39
2022-09-10T12:34:13.166Z,28.40
2022-09-10T12:35:13.182Z,28.44
2022-09-10T12:36:13.174Z,28.51
2022-09-10T12:37:13.219Z,28.49
2022-09-10T12:38:13.219Z,28.58
2022-09-10T12:39:13.201Z,28.59
2022-09-10T12:40:13.438Z,28.58
2022-09-10T12:41:13.244Z,28.68
2022-09-10T12:42:13.245Z,28.43
2022-09-10T12:43:13.251Z,28.31
2022-09-10T12:44:13.261Z,28.33
2022-09-10T12:45:13.269Z,28.29
2022-09-10T12:46:13.310Z,28.52
2022-09-10T12:47:13.288Z,28.66
2022-09-10T12:48:13.288Z,28.51
2022-09-10T12:49:13.303Z,28.40
2022-09-10T12:50:13.307Z,28.41
2022-09-10T12:51:13.310Z,28.33
2022-09-10T12:52:13.321Z,28.29
2022-09-10T12:53:13.325Z,28.29
2022-09-10T12:54:13.363Z,28.29
2022-09-10T12:55:13.337Z,28.33
2022-09-10T12:56:15.644Z,28.37
2022-09-10T12:57:13.359Z,28.27
2022-09-10T12:58:13.370Z,28.29
2022-09-10T12:59:13.365Z,28.30
2022-09-10T13:00:13.374Z,28.36